Airfield :
LOGIN :

Register | Disclaimer

   EN    FR    IT 

 










Legend :    VFR   Marginal VFR   IFR   Intensive IFR   Very Intensive IFR
Visi :
Ceiling :
>= 8 km
>= 3000ft
5 to 8 km
1000 to 3000 ft
1500m to 5 km
500 to 1000 ft
800 to 1500m
200 to 500 ft
< 800m
< 200 ft
Symbols :   Thunderstorms  Fog  Heavy snow  Heavy precipitations  Wind > 20 kt
SIGMETs :     Misc.  Thunderstorms  Icing  Turbulence  Mountain Waves  Volcanic Ashes







- Airport Elevation : 0 ft


ENSL - Sleipner A Platform

CURRENT METAR :
  • 192220Z AUTO 27009KT 9999NDV SCT180/// 06/00 Q1010 W04/S4

EXPIRED METARs :
  • 192150Z AUTO 26011KT 9999NDV SCT033/// 06/00 Q1010 W04/S4
  • 192120Z AUTO 27012KT 9999NDV SCT170/// 06/01 Q1010 W04/S4
  • 192050Z AUTO 30013KT 9999NDV FEW030/// BKN170/// 06/00 Q1010 W04/S4
  • 192020Z AUTO 31013KT 9999NDV SCT030/// 07/02 Q1009 W04/S4
  • 191950Z AUTO 30015KT 9999NDV NCD 06/01 Q1009 W04/S5

Expired Forecast.
No reported NOTAMs for that airfield.



MET'MAP, your aeronautical weather chart ! - Copyright ORBIFLY December 2007 - Disclaimer

ORBIFLY MET'MAP TEAM :

Programming & Development : Alexandra Zaïnal
Concept & Development : Baudouin d'Aumeries
Co-Development & Prog : Marc-Olivier Méhu
Technical & hardware support : Manuel Goepfert

Contact : metmap@orbifly.com




SOURCES & CREDITS :

   NOAA